Time;durP1;ratioP1;P1;durP2;ratioP2;P2;SDS_P1;SDS_P2;PMS_P1;PMS_P2;Temp;Humidity;BMP_temperature;BMP_pressure;BME280_temperature;BME280_humidity;BME280_pressure;Samples;Min_cycle;Max_cycle;Signal;HPM_P1;HPM_P2
2022/06/30 00:00:04;;;;;;;10.35;4.40;;;;;;;20.30;68.83;92659.72;2071563;69;20195;-74
2022/06/30 00:02:30;;;;;;;7.85;4.25;;;;;;;20.25;68.47;92666.72;2071668;69;20144;-74
2022/06/30 00:04:56;;;;;;;9.77;4.18;;;;;;;20.17;68.95;92661.56;2071792;69;20151;-75
2022/06/30 00:07:22;;;;;;;11.95;4.53;;;;;;;20.10;69.23;92659.94;2071760;69;20148;-77
2022/06/30 00:09:48;;;;;;;8.68;4.03;;;;;;;20.05;69.56;92656.25;2067219;69;20140;-74
2022/06/30 00:12:13;;;;;;;8.40;4.55;;;;;;;20.08;69.07;92659.91;2068452;69;20603;-74
2022/06/30 00:14:39;;;;;;;10.65;4.30;;;;;;;19.99;70.06;92658.25;2067929;69;20148;-74
2022/06/30 00:17:05;;;;;;;12.73;4.60;;;;;;;19.92;70.39;92650.91;2068374;69;20140;-74
2022/06/30 00:19:32;;;;;;;9.32;5.43;;;;;;;19.92;68.76;92659.47;2068341;69;20664;-73
2022/06/30 00:21:58;;;;;;;6.38;4.28;;;;;;;20.05;68.12;92659.09;2067857;69;20284;-73
2022/06/30 00:24:24;;;;;;;9.43;4.65;;;;;;;20.05;68.46;92655.53;2068312;69;20145;-73
2022/06/30 00:26:50;;;;;;;10.82;4.47;;;;;;;19.82;69.39;92654.25;2067311;69;20203;-76
2022/06/30 00:29:15;;;;;;;11.75;4.78;;;;;;;19.88;69.26;92656.50;2064711;69;20148;-75
2022/06/30 00:31:41;;;;;;;10.10;4.55;;;;;;;19.92;67.68;92656.63;2064651;69;20236;-74
2022/06/30 00:34:06;;;;;;;9.75;4.68;;;;;;;19.84;68.84;92659.25;2064408;69;20258;-74
2022/06/30 00:36:32;;;;;;;11.85;4.30;;;;;;;19.92;67.28;92653.75;2065042;69;20243;-74
2022/06/30 00:38:58;;;;;;;9.55;4.40;;;;;;;19.80;67.85;92649.22;2064870;69;20148;-75
2022/06/30 00:41:23;;;;;;;9.48;4.50;;;;;;;19.74;67.64;92640.47;2064422;69;20169;-74
2022/06/30 00:43:49;;;;;;;11.15;4.68;;;;;;;19.73;68.11;92641.16;2064836;69;20354;-75
2022/06/30 00:46:16;;;;;;;12.82;4.05;;;;;;;19.93;66.72;92630.25;2065148;69;20481;-74
2022/06/30 00:48:42;;;;;;;8.35;4.60;;;;;;;19.80;67.92;92625.63;2065027;69;20148;-74
2022/06/30 00:51:09;;;;;;;7.47;4.05;;;;;;;19.80;68.00;92620.66;2064299;69;20610;-75
2022/06/30 00:53:36;;;;;;;10.27;4.90;;;;;;;19.55;68.29;92618.53;2064288;69;20224;-73
2022/06/30 00:56:06;;;;;;;8.27;4.40;;;;;;;19.69;67.48;92610.34;2064928;69;20146;-74
2022/06/30 00:58:37;;;;;;;9.48;4.35;;;;;;;19.62;68.13;92610.88;2064775;69;20156;-75
2022/06/30 01:01:06;;;;;;;6.45;4.10;;;;;;;19.61;68.16;92610.16;2064932;69;20164;-74
2022/06/30 01:03:33;;;;;;;11.10;5.32;;;;;;;19.56;68.58;92602.84;2064823;69;20156;-77
2022/06/30 01:06:03;;;;;;;8.50;4.20;;;;;;;19.48;69.05;92611.94;2064906;69;20219;-74
2022/06/30 01:08:30;;;;;;;11.45;4.68;;;;;;;19.41;69.93;92623.88;2065854;69;20160;-73
2022/06/30 01:13:46;;;;;;;10.32;4.82;;;;;;;19.34;69.08;92634.41;2068076;69;20148;-78
2022/06/30 01:16:12;;;;;;;12.15;5.03;;;;;;;19.43;69.30;92632.50;2068226;69;20232;-75
2022/06/30 01:18:38;;;;;;;12.40;4.90;;;;;;;19.53;67.52;92636.34;2067939;69;20144;-76
2022/06/30 01:21:03;;;;;;;10.40;4.82;;;;;;;19.38;68.63;92630.91;2067811;69;20202;-74
2022/06/30 01:23:29;;;;;;;9.68;4.60;;;;;;;19.45;68.34;92623.97;2067909;69;20228;-74
2022/06/30 01:25:55;;;;;;;13.13;4.85;;;;;;;19.20;69.21;92623.31;2068357;69;20148;-74
2022/06/30 01:28:21;;;;;;;10.55;4.57;;;;;;;18.89;70.73;92623.88;2070565;69;20139;-76
2022/06/30 01:30:46;;;;;;;9.15;4.80;;;;;;;18.98;70.75;92626.28;2073201;69;20231;-77
2022/06/30 01:33:12;;;;;;;9.68;4.80;;;;;;;19.10;70.27;92628.72;2073222;69;20386;-74
2022/06/30 01:35:38;;;;;;;8.70;4.53;;;;;;;19.09;70.74;92620.84;2072938;69;20156;-75
2022/06/30 01:38:05;;;;;;;13.73;4.90;;;;;;;19.23;69.11;92626.94;2071091;69;20160;-74
2022/06/30 01:40:33;;;;;;;10.80;4.80;;;;;;;19.20;69.58;92620.47;2071552;69;20147;-74
2022/06/30 01:42:59;;;;;;;7.75;4.50;;;;;;;19.20;69.34;92619.75;2071461;69;20160;-78
2022/06/30 01:45:25;;;;;;;11.95;5.45;;;;;;;18.96;70.51;92622.63;2071398;69;20610;-75
2022/06/30 01:47:52;;;;;;;10.93;4.50;;;;;;;18.89;70.66;92612.44;2071505;69;20152;-74
2022/06/30 01:50:20;;;;;;;8.93;4.68;;;;;;;18.97;70.45;92615.53;2068068;69;20238;-75
2022/06/30 01:52:46;;;;;;;10.88;4.68;;;;;;;18.93;70.74;92607.59;2071315;69;20136;-75
2022/06/30 01:55:12;;;;;;;8.35;4.68;;;;;;;19.14;68.94;92602.44;2071288;69;20132;-74
2022/06/30 01:57:38;;;;;;;6.47;4.50;;;;;;;18.98;70.19;92606.31;2071219;69;20196;-72
2022/06/30 02:00:08;;;;;;;8.95;4.25;;;;;;;18.92;70.98;92605.38;2071300;69;20229;-73
2022/06/30 02:02:34;;;;;;;8.25;4.35;;;;;;;18.90;71.00;92611.06;2067982;69;20175;-73
2022/06/30 02:05:00;;;;;;;12.18;4.53;;;;;;;18.83;71.31;92615.09;2071410;69;20231;-73
2022/06/30 02:07:26;;;;;;;12.48;4.90;;;;;;;18.91;70.80;92618.19;2071403;69;20217;-74
2022/06/30 02:09:52;;;;;;;10.05;4.05;;;;;;;18.92;70.80;92625.34;2071205;69;20227;-74
2022/06/30 02:15:09;;;;;;;8.57;4.60;;;;;;;18.98;70.52;92640.53;2071459;69;20607;-75
2022/06/30 02:17:38;;;;;;;12.40;4.45;;;;;;;19.11;68.26;92649.44;2071337;69;20554;-72
2022/06/30 02:20:07;;;;;;;8.13;4.47;;;;;;;19.01;69.13;92635.59;2071293;69;20248;-73
2022/06/30 02:22:36;;;;;;;9.07;4.85;;;;;;;19.08;69.86;92645.06;2071392;69;20190;-73
2022/06/30 02:25:02;;;;;;;8.68;4.40;;;;;;;19.11;69.58;92635.19;2071472;69;20139;-74
2022/06/30 02:27:28;;;;;;;11.88;4.55;;;;;;;19.09;69.95;92632.25;2071416;69;20152;-76
2022/06/30 02:29:54;;;;;;;11.88;5.00;;;;;;;19.01;70.74;92638.44;2071330;69;20152;-74
2022/06/30 02:32:21;;;;;;;6.53;3.85;;;;;;;19.13;69.26;92633.09;2071583;69;20189;-73
2022/06/30 02:34:50;;;;;;;9.77;5.10;;;;;;;19.09;69.82;92635.84;2067984;69;20527;-73
2022/06/30 02:37:16;;;;;;;9.40;4.18;;;;;;;19.12;69.12;92630.94;2071375;69;20174;-77
2022/06/30 02:39:42;;;;;;;8.27;4.57;;;;;;;19.11;69.12;92630.19;2071483;69;20143;-74
2022/06/30 02:42:08;;;;;;;8.32;4.72;;;;;;;18.97;70.09;92629.81;2071493;69;20144;-74
2022/06/30 02:44:34;;;;;;;12.02;4.75;;;;;;;19.07;67.95;92626.50;2071371;69;20140;-73
2022/06/30 02:47:00;;;;;;;7.40;4.25;;;;;;;19.02;68.93;92620.69;2068259;69;20179;-74
2022/06/30 02:49:26;;;;;;;7.30;4.32;;;;;;;18.98;69.92;92622.69;2071456;69;20144;-74
2022/06/30 02:51:51;;;;;;;12.00;4.32;;;;;;;18.86;70.05;92623.06;2068093;69;20528;-74
2022/06/30 02:54:17;;;;;;;8.10;4.20;;;;;;;18.92;69.81;92623.25;2071487;69;20616;-74
2022/06/30 02:56:43;;;;;;;6.28;4.30;;;;;;;18.99;68.69;92616.31;2071622;69;20139;-73
2022/06/30 02:59:09;;;;;;;7.93;4.40;;;;;;;19.00;68.47;92622.75;2071330;69;20160;-73
2022/06/30 03:01:35;;;;;;;10.55;4.63;;;;;;;18.98;68.28;92634.81;2068062;69;20144;-75
2022/06/30 03:04:02;;;;;;;8.68;4.30;;;;;;;18.92;68.86;92620.41;2071509;69;20149;-74
2022/06/30 03:06:29;;;;;;;7.95;4.47;;;;;;;19.05;67.74;92627.16;2071658;69;20168;-76
2022/06/30 03:08:56;;;;;;;9.35;4.15;;;;;;;19.01;67.82;92619.25;2065650;69;20149;-74
2022/06/30 03:11:22;;;;;;;12.30;4.32;;;;;;;19.04;67.72;92623.59;2072139;69;20170;-75
2022/06/30 03:13:48;;;;;;;11.73;4.00;;;;;;;18.71;68.54;92624.78;2071930;69;20156;-77
2022/06/30 03:16:14;;;;;;;10.05;4.50;;;;;;;18.80;69.06;92634.31;2072036;69;20141;-73
2022/06/30 03:18:40;;;;;;;8.43;4.18;;;;;;;18.96;68.24;92634.03;2072042;69;20144;-77
2022/06/30 03:21:07;;;;;;;9.98;4.72;;;;;;;18.98;68.41;92639.81;2072066;69;20155;-75
2022/06/30 03:23:34;;;;;;;9.05;4.10;;;;;;;19.03;67.44;92638.53;2072150;69;20183;-73
2022/06/30 03:26:00;;;;;;;8.68;4.35;;;;;;;18.92;68.14;92637.50;2068874;69;20144;-73
2022/06/30 03:28:26;;;;;;;15.25;4.47;;;;;;;18.85;68.34;92633.03;2071957;69;20156;-73
2022/06/30 03:30:51;;;;;;;11.75;4.57;;;;;;;18.59;69.12;92630.09;2068691;69;20143;-73
2022/06/30 03:33:18;;;;;;;6.75;4.35;;;;;;;18.81;68.12;92630.03;2072028;69;20214;-73
2022/06/30 03:35:44;;;;;;;6.90;4.18;;;;;;;18.85;68.50;92627.31;2072024;69;20152;-74
2022/06/30 03:38:10;;;;;;;6.80;3.80;;;;;;;19.07;66.46;92632.22;2072050;69;20155;-75
2022/06/30 03:40:35;;;;;;;8.63;4.07;;;;;;;19.06;67.60;92631.50;2071912;69;20540;-75
2022/06/30 03:43:02;;;;;;;8.85;4.30;;;;;;;19.19;66.34;92632.53;2071892;69;20213;-75
2022/06/30 03:45:28;;;;;;;10.18;4.35;;;;;;;19.11;67.76;92629.47;2071779;69;20230;-74
2022/06/30 03:47:53;;;;;;;10.25;4.43;;;;;;;19.29;65.89;92632.84;2072070;69;20214;-78
2022/06/30 03:50:19;;;;;;;6.68;3.80;;;;;;;19.20;66.25;92631.88;2071987;69;20151;-75
2022/06/30 03:52:45;;;;;;;8.18;4.20;;;;;;;19.08;66.41;92620.13;2072000;69;20147;-74
2022/06/30 03:55:11;;;;;;;9.35;4.18;;;;;;;19.24;66.47;92625.53;2071968;69;20691;-74
2022/06/30 03:57:37;;;;;;;8.30;3.90;;;;;;;19.33;65.29;92629.34;2072053;69;20148;-73
2022/06/30 04:00:04;;;;;;;6.95;3.92;;;;;;;19.28;67.28;92625.66;2071833;69;20545;-73
2022/06/30 04:02:29;;;;;;;6.72;3.63;;;;;;;19.26;66.47;92625.59;2071922;69;20228;-74
2022/06/30 04:04:55;;;;;;;8.07;4.18;;;;;;;19.43;65.09;92638.19;2071910;69;20146;-73
2022/06/30 04:07:21;;;;;;;9.07;3.78;;;;;;;18.83;66.93;92626.53;2071883;69;20136;-76
2022/06/30 04:09:47;;;;;;;9.15;4.05;;;;;;;19.06;66.49;92622.94;2071797;69;20693;-76
2022/06/30 04:12:12;;;;;;;10.55;4.20;;;;;;;19.19;65.93;92626.81;2071920;69;20527;-77
2022/06/30 04:14:39;;;;;;;9.35;4.05;;;;;;;19.11;66.62;92618.06;2071810;69;20152;-74
2022/06/30 04:17:05;;;;;;;7.30;4.20;;;;;;;19.16;67.15;92614.66;2071988;69;20255;-77
2022/06/30 04:19:31;;;;;;;7.72;4.10;;;;;;;19.29;66.38;92621.41;2071849;69;20184;-76
2022/06/30 04:21:56;;;;;;;9.50;4.35;;;;;;;19.39;67.56;92620.97;2071969;69;20160;-74
2022/06/30 04:24:22;;;;;;;9.48;4.53;;;;;;;19.49;66.94;92616.25;2071947;69;20267;-75
2022/06/30 04:26:48;;;;;;;11.10;3.58;;;;;;;19.60;65.81;92613.66;2068535;69;20152;-73
2022/06/30 04:29:14;;;;;;;6.32;4.00;;;;;;;19.28;65.77;92614.97;2071675;69;20132;-73
2022/06/30 04:34:23;;;;;;;8.43;4.25;;;;;;;18.23;72.52;92618.28;2071934;69;20145;-74
2022/06/30 04:36:49;;;;;;;9.30;4.63;;;;;;;18.89;70.30;92610.31;2071933;69;20145;-73
2022/06/30 04:39:15;;;;;;;7.05;3.90;;;;;;;19.24;67.89;92611.28;2071844;69;20172;-73
2022/06/30 04:41:40;;;;;;;9.20;4.43;;;;;;;19.31;68.91;92612.91;2071847;69;20149;-73
2022/06/30 04:44:06;;;;;;;11.65;4.20;;;;;;;19.42;68.52;92605.31;2068436;69;20213;-77
2022/06/30 04:46:32;;;;;;;8.57;4.05;;;;;;;19.53;66.04;92604.94;2071887;69;20139;-74
2022/06/30 04:48:58;;;;;;;7.00;3.67;;;;;;;19.55;67.08;92593.56;2071971;69;20528;-74
2022/06/30 04:51:24;;;;;;;9.50;4.10;;;;;;;19.60;67.30;92593.66;2068521;69;20148;-77
2022/06/30 04:53:51;;;;;;;9.90;4.45;;;;;;;19.22;69.38;92599.81;2071901;69;20214;-76
2022/06/30 04:56:17;;;;;;;8.75;4.18;;;;;;;19.35;69.18;92593.03;2068591;69;20163;-76
2022/06/30 04:58:43;;;;;;;7.97;4.10;;;;;;;19.53;67.39;92592.78;2071834;69;20148;-75
2022/06/30 05:01:10;;;;;;;10.52;5.00;;;;;;;19.63;68.02;92590.22;2071860;69;20148;-73
2022/06/30 05:03:35;;;;;;;7.20;4.38;;;;;;;19.68;67.04;92585.34;2071821;69;20136;-74
2022/06/30 05:06:03;;;;;;;11.18;5.05;;;;;;;18.56;73.51;92582.25;2071821;69;20148;-73
2022/06/30 05:08:29;;;;;;;8.40;4.60;;;;;;;19.11;71.16;92581.69;2071785;69;20604;-74
2022/06/30 05:10:54;;;;;;;11.00;5.53;;;;;;;18.63;73.96;92583.88;2068458;69;20141;-74
2022/06/30 05:13:20;;;;;;;10.77;5.20;;;;;;;19.21;69.19;92584.81;2071763;69;20604;-74
2022/06/30 05:15:46;;;;;;;12.05;6.00;;;;;;;19.19;71.06;92584.75;2071940;69;20151;-75
2022/06/30 05:18:13;;;;;;;11.13;5.50;;;;;;;19.06;72.28;92588.69;2071794;69;20228;-77
2022/06/30 05:20:39;;;;;;;10.75;5.70;;;;;;;19.48;68.12;92583.41;2071796;69;20145;-77
2022/06/30 05:23:05;;;;;;;9.45;5.18;;;;;;;19.52;69.55;92597.78;2071797;69;20140;-77
2022/06/30 05:28:15;;;;;;;9.40;5.80;;;;;;;19.56;70.04;92585.72;2071782;69;20175;-76
2022/06/30 05:30:41;;;;;;;11.80;5.72;;;;;;;19.36;71.61;92603.03;2071539;69;20192;-76
2022/06/30 05:33:08;;;;;;;10.00;5.65;;;;;;;19.63;70.30;92595.94;2071871;69;20531;-76
2022/06/30 05:35:34;;;;;;;10.98;5.47;;;;;;;19.78;70.06;92591.28;2071729;69;20245;-75
2022/06/30 05:38:00;;;;;;;8.75;5.70;;;;;;;19.68;71.07;92588.91;2068550;69;20576;-75
2022/06/30 05:40:27;;;;;;;8.73;5.50;;;;;;;19.76;69.33;92586.28;2071778;69;20134;-75
2022/06/30 05:42:53;;;;;;;13.50;6.05;;;;;;;19.48;70.78;92591.97;2071816;69;20591;-75
2022/06/30 05:45:18;;;;;;;12.90;7.90;;;;;;;18.93;73.39;92593.31;2071603;69;20135;-75
2022/06/30 05:47:50;;;;;;;10.70;7.38;;;;;;;19.51;69.57;92587.75;2071719;69;20183;-77
2022/06/30 05:50:16;;;;;;;13.40;6.93;;;;;;;19.71;69.30;92590.44;2071689;69;20156;-76
2022/06/30 05:52:42;;;;;;;11.43;6.65;;;;;;;19.80;69.14;92599.94;2071730;69;20553;-77
2022/06/30 05:55:09;;;;;;;14.65;6.72;;;;;;;19.44;71.62;92597.56;2068456;69;20174;-74
2022/06/30 05:57:53;;;;;;;12.68;6.65;;;;;;;19.53;71.14;92598.50;2071689;69;20148;-76
2022/06/30 06:00:20;;;;;;;12.75;7.03;;;;;;;19.51;71.13;92593.44;2071581;69;20232;-75
2022/06/30 06:02:46;;;;;;;15.85;6.72;;;;;;;19.57;71.15;92586.47;2071641;69;20223;-77
2022/06/30 06:05:12;;;;;;;9.93;6.03;;;;;;;19.69;68.50;92589.63;2068393;69;20231;-78
2022/06/30 06:07:37;;;;;;;12.93;6.70;;;;;;;19.68;70.45;92586.06;2068369;69;20318;-76
2022/06/30 06:10:03;;;;;;;12.57;6.38;;;;;;;19.68;71.01;92585.34;2071600;69;20145;-76
2022/06/30 06:12:29;;;;;;;10.57;6.05;;;;;;;19.71;69.15;92593.28;2071794;69;20197;-75
2022/06/30 06:14:55;;;;;;;11.13;5.60;;;;;;;19.66;70.54;92585.28;2068257;69;20149;-74
2022/06/30 06:17:22;;;;;;;9.52;6.00;;;;;;;19.67;70.37;92593.19;2071750;69;20148;-75
2022/06/30 06:19:48;;;;;;;15.05;7.40;;;;;;;19.66;69.08;92591.00;2068334;69;20159;-76
2022/06/30 06:22:13;;;;;;;10.48;7.03;;;;;;;19.46;71.15;92594.03;2071603;69;20504;-75
2022/06/30 06:24:39;;;;;;;13.20;7.40;;;;;;;19.58;70.94;92585.06;2071614;69;20171;-73
2022/06/30 06:27:05;;;;;;;13.88;7.57;;;;;;;19.65;71.67;92590.25;2071710;69;20175;-79
2022/06/30 06:29:30;;;;;;;12.27;8.20;;;;;;;19.61;71.91;92586.56;2071542;69;20150;-76
2022/06/30 06:31:56;;;;;;;14.48;6.88;;;;;;;19.74;71.21;92585.47;2071687;69;20179;-76
2022/06/30 06:34:22;;;;;;;15.43;7.20;;;;;;;19.75;71.39;92581.97;2068296;69;20154;-77
2022/06/30 06:36:47;;;;;;;13.32;7.18;;;;;;;19.72;70.70;92569.03;2071848;69;20164;-77
2022/06/30 06:39:13;;;;;;;12.70;7.45;;;;;;;19.76;70.40;92568.41;2071665;69;20239;-77
2022/06/30 06:41:38;;;;;;;13.80;6.65;;;;;;;19.71;71.26;92570.44;2071562;69;20144;-77
2022/06/30 06:44:05;;;;;;;11.32;6.28;;;;;;;19.74;71.56;92571.19;2068699;69;20148;-75
2022/06/30 06:46:31;;;;;;;13.95;5.97;;;;;;;19.83;70.17;92566.41;2072123;69;20145;-75
2022/06/30 06:49:03;;;;;;;12.20;6.40;;;;;;;19.94;70.66;92568.84;2072164;69;20144;-73
2022/06/30 06:51:28;;;;;;;11.52;5.75;;;;;;;20.06;69.86;92571.97;2068624;69;20164;-76
2022/06/30 06:53:55;;;;;;;13.05;6.20;;;;;;;20.12;70.43;92580.00;2071821;69;20300;-75
2022/06/30 06:56:21;;;;;;;7.70;5.53;;;;;;;20.22;67.34;92573.78;2065830;69;20197;-77
2022/06/30 06:58:46;;;;;;;10.40;5.80;;;;;;;20.35;65.85;92569.06;2072063;69;20148;-76
2022/06/30 07:01:12;;;;;;;10.60;6.25;;;;;;;20.39;68.96;92566.28;2072056;69;20160;-77
2022/06/30 07:03:38;;;;;;;10.70;6.28;;;;;;;20.41;68.29;92569.19;2072060;69;20274;-76
2022/06/30 07:06:04;;;;;;;13.63;6.50;;;;;;;20.40;68.58;92570.63;2072048;69;20162;-75
2022/06/30 07:08:30;;;;;;;9.02;5.47;;;;;;;20.52;66.56;92576.59;2072067;69;20152;-75
2022/06/30 07:10:57;;;;;;;10.77;5.32;;;;;;;20.64;67.49;92564.72;2072038;69;20612;-76
2022/06/30 07:13:23;;;;;;;9.23;4.97;;;;;;;20.65;66.47;92563.31;2071909;69;20179;-75
2022/06/30 07:15:49;;;;;;;10.60;4.85;;;;;;;20.76;67.01;92567.84;2072047;69;20140;-76
2022/06/30 07:18:15;;;;;;;7.03;4.80;;;;;;;20.78;65.71;92548.56;2072015;69;20676;-76
2022/06/30 07:20:41;;;;;;;10.05;4.85;;;;;;;20.84;66.20;92556.53;2071516;69;20134;-76
2022/06/30 07:23:06;;;;;;;10.30;5.38;;;;;;;20.91;66.53;92548.84;2072077;69;20616;-76
2022/06/30 07:25:32;;;;;;;10.05;5.45;;;;;;;20.98;67.70;92539.69;2072014;69;20601;-77
2022/06/30 07:27:59;;;;;;;9.90;5.22;;;;;;;21.06;67.62;92547.69;2071886;69;20239;-76
2022/06/30 07:30:25;;;;;;;9.23;5.20;;;;;;;21.08;66.02;92544.16;2068395;69;20572;-76
2022/06/30 07:32:51;;;;;;;9.73;4.75;;;;;;;21.14;66.93;92541.41;2071992;69;20137;-76
2022/06/30 07:35:17;;;;;;;6.95;4.75;;;;;;;21.12;68.32;92529.91;2065858;69;20148;-76
2022/06/30 07:37:43;;;;;;;9.95;5.00;;;;;;;21.22;67.04;92535.84;2072000;69;20231;-74
2022/06/30 07:40:10;;;;;;;10.80;4.75;;;;;;;21.31;67.01;92529.59;2068665;69;20148;-75
2022/06/30 07:42:35;;;;;;;9.05;5.97;;;;;;;21.13;65.80;92537.81;2071972;69;20158;-76
2022/06/30 07:45:03;;;;;;;13.00;5.55;;;;;;;21.24;65.93;92533.00;2071939;69;20144;-76
2022/06/30 07:47:28;;;;;;;10.00;5.90;;;;;;;21.19;66.29;92525.75;2068852;69;20199;-78
2022/06/30 07:49:54;;;;;;;8.15;6.00;;;;;;;21.22;65.28;92522.25;2071948;69;20252;-75
2022/06/30 07:52:19;;;;;;;10.88;5.50;;;;;;;21.28;64.91;92522.34;2072057;69;20609;-76
2022/06/30 07:54:45;;;;;;;10.73;6.18;;;;;;;21.28;64.82;92516.63;2071807;69;20225;-75
2022/06/30 07:57:12;;;;;;;10.20;6.20;;;;;;;21.49;64.81;92514.88;2068705;69;20152;-76
2022/06/30 07:59:38;;;;;;;7.22;5.85;;;;;;;21.66;65.30;92515.88;2068480;69;20172;-76
2022/06/30 08:02:04;;;;;;;12.65;5.70;;;;;;;21.61;64.22;92513.63;2071927;69;20256;-76
2022/06/30 08:04:30;;;;;;;10.10;6.00;;;;;;;21.71;64.05;92502.34;2074161;69;20615;-76
2022/06/30 08:06:56;;;;;;;8.00;5.65;;;;;;;21.76;62.86;92501.72;2075542;69;20171;-76
2022/06/30 08:09:21;;;;;;;9.50;5.72;;;;;;;21.87;62.47;92499.03;2074167;69;20226;-76
2022/06/30 08:11:47;;;;;;;7.93;5.05;;;;;;;22.12;62.14;92495.13;2072869;69;20522;-77
2022/06/30 08:14:12;;;;;;;11.40;5.32;;;;;;;22.06;61.27;92490.00;2072133;69;20148;-75
2022/06/30 08:16:38;;;;;;;11.80;5.53;;;;;;;22.22;60.73;92483.81;2070161;69;20578;-75
2022/06/30 08:19:04;;;;;;;8.48;5.30;;;;;;;22.57;61.86;92484.97;2073182;69;20610;-77
2022/06/30 08:21:30;;;;;;;10.40;5.13;;;;;;;22.65;63.10;92483.66;2073467;69;20181;-77
2022/06/30 08:23:56;;;;;;;10.95;5.30;;;;;;;23.06;59.54;92474.13;2073314;69;20622;-77
2022/06/30 08:26:22;;;;;;;11.32;5.47;;;;;;;23.25;59.35;92486.50;2072094;69;20759;-77
2022/06/30 08:28:48;;;;;;;15.35;5.70;;;;;;;23.62;58.50;92480.41;2071929;69;20160;-79
2022/06/30 08:31:15;;;;;;;7.65;5.00;;;;;;;23.71;57.13;92470.44;2068564;69;20546;-75
2022/06/30 08:33:40;;;;;;;10.55;5.25;;;;;;;23.98;57.99;92477.84;2071228;69;20147;-75
2022/06/30 08:36:06;;;;;;;8.30;5.15;;;;;;;24.67;54.60;92471.09;2069815;69;20209;-78
2022/06/30 08:38:32;;;;;;;6.63;4.80;;;;;;;24.90;53.26;92466.13;2073279;69;20140;-77
2022/06/30 08:43:45;;;;;;;7.65;4.20;;;;;;;24.97;52.10;92465.47;2071795;69;20128;-79
2022/06/30 08:46:13;;;;;;;8.90;4.45;;;;;;;25.98;50.08;92460.59;2071897;69;20148;-77
2022/06/30 08:48:39;;;;;;;9.65;4.72;;;;;;;25.59;51.31;92452.63;2071883;69;20603;-78
2022/06/30 08:51:06;;;;;;;11.48;4.68;;;;;;;25.71;49.44;92451.94;2071874;69;20626;-75
2022/06/30 08:53:45;;;;;;;9.48;4.45;;;;;;;26.34;46.45;92451.91;2072238;69;20156;-75
2022/06/30 08:56:12;;;;;;;5.15;3.63;;;;;;;26.34;49.34;92446.13;2072650;69;20507;-76
2022/06/30 08:58:39;;;;;;;8.00;3.70;;;;;;;26.42;46.75;92451.16;2072117;69;20211;-79
2022/06/30 09:01:05;;;;;;;8.57;3.75;;;;;;;26.59;46.49;92440.31;2068891;69;20148;-77
2022/06/30 09:03:32;;;;;;;9.43;3.65;;;;;;;27.44;46.24;92444.28;2070231;69;20148;-79
2022/06/30 09:05:58;;;;;;;5.50;3.47;;;;;;;27.61;43.80;92443.44;2071855;69;20197;-78
2022/06/30 09:08:25;;;;;;;8.52;3.60;;;;;;;27.67;44.92;92441.94;2071851;69;20667;-76
2022/06/30 09:10:53;;;;;;;7.05;3.40;;;;;;;27.85;44.00;92445.44;2070444;69;20156;-76
2022/06/30 09:13:19;;;;;;;8.13;3.60;;;;;;;28.38;44.62;92434.88;2068417;69;20200;-78
2022/06/30 09:15:49;;;;;;;8.82;3.35;;;;;;;27.83;42.35;92439.69;2068595;69;20563;-79
2022/06/30 09:18:22;;;;;;;6.57;3.30;;;;;;;28.35;43.44;92437.06;2068597;69;20152;-80
2022/06/30 09:20:48;;;;;;;6.30;3.38;;;;;;;28.74;43.75;92433.78;2069143;69;20168;-80
2022/06/30 09:23:24;;;;;;;6.60;3.25;;;;;;;28.39;41.79;92427.63;2068889;69;20152;-80
2022/06/30 09:25:53;;;;;;;8.00;3.40;;;;;;;29.12;42.09;92423.91;2064624;69;20156;-79
2022/06/30 09:28:42;;;;;;;7.00;2.80;;;;;;;29.61;41.77;92420.38;2065527;69;20641;-77
2022/06/30 09:31:13;;;;;;;6.60;2.90;;;;;;;29.42;38.06;92419.88;2069885;69;20636;-76
2022/06/30 09:33:41;;;;;;;8.48;3.15;;;;;;;29.38;40.02;92408.34;2070469;69;20204;-76
2022/06/30 09:36:22;;;;;;;7.88;3.00;;;;;;;29.65;39.85;92413.78;2067206;69;20618;-73
2022/06/30 09:39:05;;;;;;;6.33;3.00;;;;;;;29.75;38.29;92402.03;2071335;69;20164;-78
2022/06/30 09:41:36;;;;;;;8.88;2.85;;;;;;;30.20;39.14;92404.94;2068423;69;20260;-74
2022/06/30 09:44:06;;;;;;;6.28;3.22;;;;;;;29.96;38.74;92399.50;2068169;69;20152;-75
2022/06/30 09:46:36;;;;;;;5.05;2.97;;;;;;;30.31;39.21;92390.94;2071608;69;20228;-74
2022/06/30 09:49:03;;;;;;;7.05;3.40;;;;;;;30.35;39.50;92388.69;2071253;69;20206;-77
2022/06/30 09:51:41;;;;;;;9.80;3.17;;;;;;;30.15;38.56;92391.97;2067925;69;20163;-76
2022/06/30 09:54:08;;;;;;;7.47;3.05;;;;;;;30.53;39.18;92386.91;2071738;69;20198;-75
2022/06/30 09:56:34;;;;;;;5.32;2.95;;;;;;;30.42;37.80;92380.56;2071561;69;20184;-75
2022/06/30 09:59:00;;;;;;;8.05;3.10;;;;;;;30.00;38.70;92384.91;2068159;69;20168;-76
2022/06/30 10:01:26;;;;;;;6.05;2.97;;;;;;;30.66;40.83;92381.59;2071631;69;20231;-76
2022/06/30 10:03:59;;;;;;;8.65;2.85;;;;;;;31.49;38.74;92374.03;2071646;69;20143;-78
2022/06/30 10:06:26;;;;;;;5.65;3.10;;;;;;;31.56;38.24;92374.59;2071634;69;20152;-75
2022/06/30 10:08:54;;;;;;;7.53;2.80;;;;;;;31.22;35.54;92368.06;2071517;69;20194;-78
2022/06/30 10:11:21;;;;;;;5.40;2.53;;;;;;;31.63;34.72;92373.69;2071499;69;20600;-76
2022/06/30 10:13:48;;;;;;;6.05;2.78;;;;;;;31.67;36.26;92367.09;2071515;69;20133;-78
2022/06/30 10:16:16;;;;;;;7.93;3.15;;;;;;;32.05;35.40;92370.53;2071628;69;20589;-76
2022/06/30 10:18:41;;;;;;;7.13;2.75;;;;;;;32.41;35.74;92371.13;2071410;69;20148;-74
2022/06/30 10:21:11;;;;;;;5.55;2.72;;;;;;;32.32;36.57;92361.84;2068238;69;20207;-76
2022/06/30 10:23:36;;;;;;;5.43;2.80;;;;;;;33.24;35.61;92370.97;2071706;69;20140;-76
2022/06/30 10:26:03;;;;;;;5.75;2.40;;;;;;;33.98;34.35;92361.41;2071399;69;20516;-75
2022/06/30 10:28:28;;;;;;;5.85;2.67;;;;;;;33.92;32.30;92358.66;2071415;69;20171;-74
2022/06/30 10:31:02;;;;;;;8.68;2.70;;;;;;;32.90;33.81;92353.00;2071559;69;20179;-75
2022/06/30 10:34:03;;;;;;;9.40;2.63;;;;;;;34.01;33.66;92362.78;2068117;69;20128;-75
2022/06/30 10:36:32;;;;;;;9.43;2.60;;;;;;;34.00;32.25;92355.53;2057243;69;20245;-75
2022/06/30 10:39:02;;;;;;;6.32;2.10;;;;;;;34.60;32.98;92357.16;2057335;69;20161;-74
2022/06/30 10:41:28;;;;;;;8.10;2.60;;;;;;;35.72;31.38;92344.22;2057390;69;20319;-76
2022/06/30 10:44:02;;;;;;;6.88;2.60;;;;;;;36.07;32.04;92345.78;2054544;69;20207;-74
2022/06/30 10:46:28;;;;;;;7.55;2.58;;;;;;;36.26;30.59;92343.50;2057369;69;20285;-76
2022/06/30 10:48:54;;;;;;;5.43;2.22;;;;;;;36.71;30.57;92341.63;2057308;69;20210;-77
2022/06/30 10:51:22;;;;;;;5.13;2.30;;;;;;;36.73;28.47;92338.59;2057489;69;20610;-76
2022/06/30 10:53:50;;;;;;;6.75;2.20;;;;;;;37.33;29.01;92336.66;2057327;69;20260;-78
2022/06/30 10:56:16;;;;;;;5.68;2.20;;;;;;;37.71;28.66;92333.44;2054558;69;20169;-79
2022/06/30 10:59:04;;;;;;;6.75;2.20;;;;;;;39.16;28.13;92335.72;2056949;69;20176;-76
2022/06/30 11:01:30;;;;;;;4.72;1.90;;;;;;;38.42;25.00;92332.94;2057279;69;20133;-79
2022/06/30 11:03:57;;;;;;;5.68;2.15;;;;;;;37.54;27.73;92319.56;2057236;69;20145;-78
2022/06/30 11:06:26;;;;;;;5.32;1.85;;;;;;;37.74;26.50;92329.59;2054437;69;20149;-78
2022/06/30 11:08:57;;;;;;;6.55;2.00;;;;;;;42.55;22.28;92334.00;2057170;69;20169;-75
2022/06/30 11:11:23;;;;;;;5.68;1.90;;;;;;;38.55;24.43;92327.84;2060350;69;20473;-77
2022/06/30 11:14:03;;;;;;;4.57;1.80;;;;;;;36.73;25.87;92314.41;2071339;69;20174;-77
2022/06/30 11:16:31;;;;;;;5.60;2.08;;;;;;;34.76;28.79;92303.25;2071253;69;20231;-78
2022/06/30 11:18:57;;;;;;;5.25;2.13;;;;;;;35.04;29.82;92302.19;2071291;69;20163;-77
2022/06/30 11:21:23;;;;;;;4.55;1.80;;;;;;;35.04;30.54;92301.50;2068245;69;20141;-77
2022/06/30 11:23:50;;;;;;;6.10;1.90;;;;;;;35.50;30.89;92304.13;2071433;69;20191;-80
2022/06/30 11:29:11;;;;;;;7.82;2.10;;;;;;;43.04;22.22;92304.09;2067969;69;20659;-78
2022/06/30 11:31:39;;;;;;;4.63;2.00;;;;;;;44.31;19.12;92303.97;2071860;69;20175;-77
2022/06/30 11:34:10;;;;;;;5.35;2.00;;;;;;;38.04;25.92;92292.19;2071935;69;20152;-78
2022/06/30 11:36:38;;;;;;;5.10;1.88;;;;;;;36.00;27.99;92286.72;2071975;69;20144;-77
2022/06/30 11:39:10;;;;;;;6.97;2.08;;;;;;;35.41;29.91;92271.53;2071962;69;20144;-77
2022/06/30 11:41:56;;;;;;;6.07;2.00;;;;;;;35.04;32.27;92275.88;2073023;69;20156;-76
2022/06/30 11:44:41;;;;;;;6.43;1.95;;;;;;;34.43;34.54;92268.63;2072812;69;20140;-75